Time;durP1;ratioP1;P1;durP2;ratioP2;P2;SDS_P1;SDS_P2;PMS_P1;PMS_P2;Temp;Humidity;BMP_temperature;BMP_pressure;BME280_temperature;BME280_humidity;BME280_pressure;Samples;Min_cycle;Max_cycle;Signal;HPM_P1;HPM_P2
2024/03/20 00:02:20;;;;;;;5.40;2.20;;;13.80;99.90;;;;;;5029151;28;20177;-76
2024/03/20 00:04:46;;;;;;;3.20;2.23;;;13.80;99.90;;;;;;5012392;28;20251;-76
2024/03/20 00:07:12;;;;;;;3.13;1.83;;;13.80;99.90;;;;;;4996227;28;20652;-76
2024/03/20 00:09:38;;;;;;;4.00;2.33;;;13.80;99.90;;;;;;5013057;28;20596;-76
2024/03/20 00:12:04;;;;;;;3.70;2.30;;;13.70;99.90;;;;;;5029043;28;20594;-76
2024/03/20 00:14:29;;;;;;;4.20;2.50;;;13.70;99.90;;;;;;5028680;28;20635;-75
2024/03/20 00:17:01;;;;;;;6.60;2.43;;;13.70;99.90;;;;;;5030295;28;20622;-75
2024/03/20 00:19:28;;;;;;;5.40;2.30;;;13.70;99.90;;;;;;5030629;28;20257;-76
2024/03/20 00:21:53;;;;;;;4.80;2.60;;;13.70;99.90;;;;;;5030191;28;20641;-75
2024/03/20 00:24:19;;;;;;;4.20;2.10;;;13.70;99.90;;;;;;5031549;28;20575;-75
2024/03/20 00:26:46;;;;;;;4.43;1.93;;;13.70;99.90;;;;;;5032398;28;20729;-76
2024/03/20 00:29:12;;;;;;;3.37;2.07;;;13.70;99.90;;;;;;5050229;28;20173;-75
2024/03/20 00:31:38;;;;;;;4.53;2.60;;;13.60;99.90;;;;;;5045570;28;20571;-75
2024/03/20 00:34:03;;;;;;;4.00;2.27;;;13.60;99.90;;;;;;5033911;28;20211;-76
2024/03/20 00:36:31;;;;;;;4.40;2.37;;;13.60;99.90;;;;;;5042844;28;20177;-76
2024/03/20 00:38:56;;;;;;;5.57;2.30;;;13.60;99.90;;;;;;5030107;28;20709;-75
2024/03/20 00:41:22;;;;;;;7.37;2.60;;;13.60;99.90;;;;;;5029065;28;20635;-76
2024/03/20 00:43:48;;;;;;;4.67;3.00;;;13.60;99.90;;;;;;5028281;28;20799;-75
2024/03/20 00:46:13;;;;;;;3.50;2.10;;;13.60;99.90;;;;;;5028591;28;20917;-76
2024/03/20 00:48:39;;;;;;;4.30;2.20;;;13.60;99.90;;;;;;5028838;28;20190;-75
2024/03/20 00:51:05;;;;;;;9.87;2.90;;;13.50;99.90;;;;;;5028676;28;20181;-76
2024/03/20 00:53:30;;;;;;;4.80;2.73;;;13.50;99.90;;;;;;5029491;28;20180;-76
2024/03/20 00:55:56;;;;;;;2.90;1.87;;;13.50;99.90;;;;;;5015149;28;20188;-75
2024/03/20 00:58:22;;;;;;;3.90;2.60;;;13.50;99.90;;;;;;5032245;28;20740;-76
2024/03/20 01:00:49;;;;;;;4.10;2.40;;;13.40;99.90;;;;;;5049764;28;20189;-75
2024/03/20 01:03:14;;;;;;;3.43;2.13;;;13.40;99.90;;;;;;5015176;28;20930;-75
2024/03/20 01:05:41;;;;;;;5.40;2.43;;;13.40;99.90;;;;;;5032298;28;20706;-75
2024/03/20 01:08:07;;;;;;;3.73;2.60;;;13.40;99.90;;;;;;5031701;28;20212;-75
2024/03/20 01:10:33;;;;;;;5.57;2.72;;;13.30;99.90;;;;;;5032302;28;20641;-75
2024/03/20 01:12:58;;;;;;;3.60;2.00;;;13.30;99.90;;;;;;5025761;28;20635;-75
2024/03/20 01:15:24;;;;;;;4.43;3.03;;;13.30;99.90;;;;;;5015723;28;20170;-75
2024/03/20 01:17:51;;;;;;;6.73;3.10;;;13.30;99.90;;;;;;5016052;28;20213;-75
2024/03/20 01:20:17;;;;;;;4.45;2.30;;;13.30;99.90;;;;;;5015892;28;20634;-75
2024/03/20 01:22:42;;;;;;;3.00;2.00;;;13.30;99.90;;;;;;5015066;28;20201;-75
2024/03/20 01:25:08;;;;;;;4.83;2.17;;;13.30;99.90;;;;;;5015388;28;21180;-75
2024/03/20 01:27:34;;;;;;;3.40;2.35;;;13.20;99.90;;;;;;4999581;28;20240;-76
2024/03/20 01:30:00;;;;;;;3.87;2.50;;;13.20;99.90;;;;;;5034557;28;20169;-76
2024/03/20 01:32:26;;;;;;;4.70;2.67;;;13.20;99.90;;;;;;5034612;28;21125;-76
2024/03/20 01:34:54;;;;;;;4.70;2.75;;;13.20;99.90;;;;;;5015797;28;20165;-76
2024/03/20 01:37:20;;;;;;;4.00;2.40;;;13.10;99.90;;;;;;5011521;28;20334;-76
2024/03/20 01:39:46;;;;;;;3.10;1.67;;;13.10;99.90;;;;;;5019010;28;20276;-76
2024/03/20 01:42:11;;;;;;;3.17;2.23;;;13.10;99.90;;;;;;5034998;28;20192;-75
2024/03/20 01:44:37;;;;;;;2.30;1.60;;;13.10;99.90;;;;;;5035099;28;20183;-77
2024/03/20 01:47:03;;;;;;;4.00;2.47;;;13.10;99.90;;;;;;4999072;28;20209;-76
2024/03/20 01:49:32;;;;;;;3.03;2.27;;;13.10;99.90;;;;;;5021891;28;20196;-78
2024/03/20 01:51:59;;;;;;;3.27;2.73;;;13.00;99.90;;;;;;5027170;28;20510;-77
2024/03/20 01:54:25;;;;;;;7.27;3.20;;;13.00;99.90;;;;;;5063831;28;20575;-76
2024/03/20 01:56:53;;;;;;;5.75;2.53;;;13.10;99.90;;;;;;5046750;28;20672;-76
2024/03/20 01:59:18;;;;;;;3.15;2.30;;;13.00;99.90;;;;;;5048414;28;20165;-76
2024/03/20 02:01:44;;;;;;;4.17;2.90;;;13.00;99.90;;;;;;5025014;28;20177;-76
2024/03/20 02:04:10;;;;;;;3.77;2.37;;;12.90;99.90;;;;;;5053885;28;21059;-76
2024/03/20 02:06:36;;;;;;;3.40;2.27;;;12.90;99.90;;;;;;5045809;28;20212;-76
2024/03/20 02:09:04;;;;;;;3.37;2.50;;;12.90;99.90;;;;;;5027946;28;21161;-76
2024/03/20 02:11:30;;;;;;;4.22;2.92;;;12.90;99.90;;;;;;5017292;28;20178;-76
2024/03/20 02:13:57;;;;;;;5.53;2.83;;;12.80;99.90;;;;;;5033092;28;20591;-76
2024/03/20 02:16:25;;;;;;;4.15;2.92;;;12.80;99.90;;;;;;5037265;28;20560;-77
2024/03/20 02:18:51;;;;;;;4.70;2.45;;;12.80;99.90;;;;;;5019475;28;20244;-76
2024/03/20 02:21:22;;;;;;;3.80;3.10;;;12.80;99.90;;;;;;5045293;28;20246;-76
2024/03/20 02:23:51;;;;;;;4.22;2.85;;;12.80;99.90;;;;;;5036566;28;20184;-76
2024/03/20 02:26:17;;;;;;;4.38;2.60;;;12.70;99.90;;;;;;5032380;28;20197;-76
2024/03/20 02:28:44;;;;;;;4.53;2.60;;;12.70;99.90;;;;;;5032844;28;20312;-76
2024/03/20 02:31:12;;;;;;;5.75;2.90;;;12.70;99.90;;;;;;5021637;28;20197;-76
2024/03/20 02:33:38;;;;;;;3.67;2.55;;;12.70;99.90;;;;;;5055581;28;20168;-75
2024/03/20 02:36:05;;;;;;;3.65;2.22;;;12.70;99.90;;;;;;5034340;28;20210;-77
2024/03/20 02:38:33;;;;;;;3.45;2.50;;;12.60;99.90;;;;;;5014408;28;20252;-77
2024/03/20 02:40:59;;;;;;;3.65;2.67;;;12.60;99.90;;;;;;5030703;28;20178;-78
2024/03/20 02:43:25;;;;;;;4.57;3.20;;;12.70;99.90;;;;;;5031540;28;20178;-76
2024/03/20 02:45:51;;;;;;;5.13;3.13;;;12.60;99.90;;;;;;5014139;28;20204;-76
2024/03/20 02:48:16;;;;;;;4.60;2.83;;;12.60;99.90;;;;;;5031263;28;20201;-76
2024/03/20 02:50:43;;;;;;;4.40;2.93;;;12.60;99.90;;;;;;5038537;28;20179;-77
2024/03/20 02:53:09;;;;;;;4.70;2.63;;;12.50;99.90;;;;;;5016627;28;20642;-76
2024/03/20 02:55:36;;;;;;;5.97;3.22;;;12.50;99.90;;;;;;5051646;28;20176;-76
2024/03/20 02:58:02;;;;;;;4.18;2.33;;;12.50;99.90;;;;;;5051247;28;20208;-76
2024/03/20 03:00:29;;;;;;;5.67;3.03;;;12.50;99.90;;;;;;5033863;28;20177;-77
2024/03/20 03:02:55;;;;;;;4.28;3.20;;;12.50;99.90;;;;;;5033177;28;20587;-76
2024/03/20 03:05:22;;;;;;;4.07;3.00;;;12.40;99.90;;;;;;5034181;28;20201;-76
2024/03/20 03:07:47;;;;;;;6.32;3.53;;;12.40;99.90;;;;;;5033328;28;20248;-76
2024/03/20 03:10:15;;;;;;;6.53;3.17;;;12.40;99.90;;;;;;5033343;28;20204;-77
2024/03/20 03:12:41;;;;;;;3.60;2.50;;;12.40;99.90;;;;;;5051256;28;20256;-76
2024/03/20 03:15:07;;;;;;;6.82;3.28;;;12.40;99.90;;;;;;5033437;28;20234;-76
2024/03/20 03:17:33;;;;;;;5.50;3.83;;;12.30;99.90;;;;;;5033181;28;20189;-77
2024/03/20 03:19:59;;;;;;;5.90;3.90;;;12.30;99.90;;;;;;5032878;28;20598;-76
2024/03/20 03:22:24;;;;;;;5.70;3.40;;;12.30;99.90;;;;;;5051050;28;20165;-76
2024/03/20 03:24:50;;;;;;;4.10;3.20;;;12.30;99.90;;;;;;5050556;28;20627;-76
2024/03/20 03:27:15;;;;;;;8.83;4.40;;;12.30;99.90;;;;;;5050647;28;20664;-76
2024/03/20 03:29:41;;;;;;;5.07;3.83;;;12.30;99.90;;;;;;5051260;28;20177;-77
2024/03/20 03:32:07;;;;;;;4.37;2.50;;;12.30;99.90;;;;;;5050660;28;20177;-76
2024/03/20 03:34:32;;;;;;;4.47;3.30;;;12.30;99.90;;;;;;5050680;28;20230;-77
2024/03/20 03:36:58;;;;;;;3.83;3.30;;;12.30;99.90;;;;;;5032619;28;20279;-77
2024/03/20 03:39:24;;;;;;;5.10;3.20;;;12.30;99.90;;;;;;5016388;28;20183;-77
2024/03/20 03:41:50;;;;;;;4.50;4.03;;;12.30;99.90;;;;;;5050801;28;20276;-76
2024/03/20 03:44:16;;;;;;;9.07;4.78;;;12.30;99.90;;;;;;5032504;28;20188;-76
2024/03/20 03:46:42;;;;;;;7.30;3.92;;;12.40;99.90;;;;;;5032890;28;20705;-77
2024/03/20 03:49:08;;;;;;;6.73;3.83;;;12.30;99.90;;;;;;5050574;28;20177;-76
2024/03/20 03:51:35;;;;;;;5.93;3.80;;;12.30;99.90;;;;;;5050361;28;20173;-76
2024/03/20 03:54:01;;;;;;;4.65;3.85;;;12.30;99.90;;;;;;5032125;28;20260;-76
2024/03/20 03:56:26;;;;;;;4.50;3.73;;;12.30;99.90;;;;;;5031524;28;20216;-75
2024/03/20 03:58:52;;;;;;;6.60;3.60;;;12.30;99.90;;;;;;5031948;28;20588;-75
2024/03/20 04:01:18;;;;;;;5.70;4.40;;;12.30;99.90;;;;;;5050128;28;20268;-76
2024/03/20 04:03:43;;;;;;;7.37;4.47;;;12.30;99.90;;;;;;5031939;28;20592;-75
2024/03/20 04:06:09;;;;;;;8.60;4.53;;;12.30;99.90;;;;;;5050486;28;20615;-76
2024/03/20 04:08:35;;;;;;;6.60;3.83;;;12.20;99.90;;;;;;5032190;28;20683;-76
2024/03/20 04:11:01;;;;;;;8.70;4.17;;;12.20;99.90;;;;;;5050073;28;21171;-76
2024/03/20 04:13:26;;;;;;;6.57;4.57;;;12.20;99.90;;;;;;5014988;28;20342;-76
2024/03/20 04:15:55;;;;;;;5.43;3.73;;;12.20;99.90;;;;;;5032580;28;20180;-76
2024/03/20 04:18:21;;;;;;;5.32;3.90;;;12.20;99.90;;;;;;5031947;28;20197;-76
2024/03/20 04:20:46;;;;;;;7.00;4.40;;;12.20;99.90;;;;;;5050034;28;20582;-76
2024/03/20 04:23:12;;;;;;;6.70;4.93;;;12.20;99.90;;;;;;5049524;28;20529;-76
2024/03/20 04:25:39;;;;;;;5.50;3.70;;;12.20;99.90;;;;;;5015774;28;20286;-76
2024/03/20 04:28:05;;;;;;;5.25;4.32;;;12.20;99.90;;;;;;5032159;28;21304;-76
2024/03/20 04:30:31;;;;;;;6.07;4.95;;;12.20;99.90;;;;;;5031320;28;20180;-76
2024/03/20 04:32:57;;;;;;;6.30;5.50;;;12.10;99.90;;;;;;5046854;28;20181;-76
2024/03/20 04:35:23;;;;;;;7.40;5.60;;;12.10;99.90;;;;;;5043927;28;20677;-77
2024/03/20 04:37:48;;;;;;;10.10;4.90;;;12.10;99.90;;;;;;5039604;28;20213;-76
2024/03/20 04:40:14;;;;;;;7.13;5.00;;;12.10;99.90;;;;;;5031778;28;20181;-77
2024/03/20 04:42:40;;;;;;;5.97;4.40;;;12.10;99.90;;;;;;5015859;28;20184;-77
2024/03/20 04:45:07;;;;;;;6.23;4.43;;;12.10;99.90;;;;;;5031681;28;20591;-77
2024/03/20 04:47:33;;;;;;;10.30;5.95;;;12.10;99.90;;;;;;5036251;28;20197;-77
2024/03/20 04:49:58;;;;;;;7.33;4.97;;;12.10;99.90;;;;;;5054054;28;20176;-77
2024/03/20 04:52:24;;;;;;;6.07;5.10;;;12.10;99.90;;;;;;5036412;28;20295;-77
2024/03/20 04:54:49;;;;;;;5.50;4.67;;;12.10;99.90;;;;;;5036562;28;20165;-77
2024/03/20 04:57:15;;;;;;;10.37;6.83;;;12.10;99.90;;;;;;5036588;28;20621;-77
2024/03/20 04:59:41;;;;;;;9.47;5.97;;;12.10;99.90;;;;;;5019875;28;20221;-77
2024/03/20 05:02:06;;;;;;;6.97;6.27;;;12.10;99.90;;;;;;5053692;28;20191;-77
2024/03/20 05:04:32;;;;;;;10.43;6.37;;;12.00;99.90;;;;;;5048903;28;20189;-77
2024/03/20 05:06:58;;;;;;;7.30;6.13;;;12.00;99.90;;;;;;5033424;28;20213;-77
2024/03/20 05:09:24;;;;;;;6.60;5.23;;;12.00;99.90;;;;;;5015828;28;20177;-77
2024/03/20 05:11:50;;;;;;;7.60;5.30;;;12.00;99.90;;;;;;5015868;28;20174;-77
2024/03/20 05:14:16;;;;;;;6.77;5.67;;;12.10;99.90;;;;;;4999194;28;20184;-77
2024/03/20 05:16:42;;;;;;;6.13;5.07;;;12.00;99.90;;;;;;5015980;28;20205;-77
2024/03/20 05:19:08;;;;;;;9.43;6.33;;;12.00;99.90;;;;;;5033646;28;20189;-77
2024/03/20 05:21:34;;;;;;;7.70;5.93;;;12.00;99.90;;;;;;5033324;28;20580;-76
2024/03/20 05:23:59;;;;;;;7.00;5.30;;;12.00;99.90;;;;;;5015249;28;20182;-78
2024/03/20 05:26:25;;;;;;;6.87;5.83;;;12.00;99.90;;;;;;5037153;28;20201;-77
2024/03/20 05:28:51;;;;;;;7.53;5.60;;;12.00;99.90;;;;;;5035852;28;20583;-77
2024/03/20 05:31:30;;;;;;;8.00;5.40;;;12.00;99.90;;;;;;5035403;28;20709;-77
2024/03/20 05:33:56;;;;;;;8.13;7.05;;;12.00;99.90;;;;;;5044843;28;20180;-78
2024/03/20 05:36:22;;;;;;;6.83;6.23;;;12.00;99.90;;;;;;5039442;28;20181;-77
2024/03/20 05:38:48;;;;;;;6.60;5.35;;;12.00;99.90;;;;;;5036280;28;20686;-77
2024/03/20 05:41:14;;;;;;;8.57;6.20;;;12.00;99.90;;;;;;5017865;28;20264;-76
2024/03/20 05:43:41;;;;;;;7.35;6.43;;;12.00;99.90;;;;;;5004048;28;21129;-77
2024/03/20 05:46:09;;;;;;;10.35;7.15;;;12.00;99.90;;;;;;5026819;28;20200;-77
2024/03/20 05:48:38;;;;;;;9.40;7.03;;;12.00;99.90;;;;;;5033556;28;20203;-77
2024/03/20 05:51:04;;;;;;;8.57;6.68;;;12.00;99.90;;;;;;5016094;28;20165;-76
2024/03/20 05:53:30;;;;;;;11.35;6.90;;;12.00;99.90;;;;;;5049485;28;20173;-77
2024/03/20 05:55:56;;;;;;;8.00;6.33;;;12.00;99.90;;;;;;5022740;28;20185;-77
2024/03/20 05:58:22;;;;;;;7.50;6.70;;;12.00;99.90;;;;;;5016470;28;20202;-78
2024/03/20 06:00:48;;;;;;;7.67;6.00;;;12.00;99.90;;;;;;5012388;28;20596;-77
2024/03/20 06:03:14;;;;;;;7.15;5.93;;;12.10;99.90;;;;;;5050255;28;20188;-77
2024/03/20 06:05:39;;;;;;;12.13;6.30;;;12.10;99.90;;;;;;5039276;28;20194;-77
2024/03/20 06:08:06;;;;;;;7.23;6.53;;;12.10;99.90;;;;;;5031192;28;20554;-77
2024/03/20 06:10:32;;;;;;;8.52;7.47;;;12.20;99.90;;;;;;5016747;28;20170;-77
2024/03/20 06:12:58;;;;;;;9.88;6.53;;;12.20;99.90;;;;;;5040373;28;20170;-77
2024/03/20 06:15:24;;;;;;;7.80;6.73;;;12.20;99.90;;;;;;5025693;28;20738;-77
2024/03/20 06:17:50;;;;;;;8.00;7.10;;;12.20;99.90;;;;;;5037892;28;20276;-77
2024/03/20 06:20:16;;;;;;;10.82;6.88;;;12.30;99.90;;;;;;5042135;28;20574;-77
2024/03/20 06:22:41;;;;;;;9.43;7.30;;;12.30;99.90;;;;;;5026022;28;20180;-77
2024/03/20 06:25:08;;;;;;;8.90;7.60;;;12.40;99.90;;;;;;5025470;28;20204;-76
2024/03/20 06:27:34;;;;;;;10.48;7.45;;;12.40;99.90;;;;;;5043927;28;20242;-76
2024/03/20 06:30:09;;;;;;;7.70;6.95;;;12.50;99.90;;;;;;5043708;28;20196;-77
2024/03/20 06:32:38;;;;;;;10.07;7.40;;;12.50;99.90;;;;;;5026561;28;20211;-76
2024/03/20 06:35:04;;;;;;;8.63;7.15;;;12.50;99.90;;;;;;5053736;28;20193;-78
2024/03/20 06:37:30;;;;;;;9.35;7.50;;;12.60;99.90;;;;;;5061053;28;20193;-76
2024/03/20 06:39:56;;;;;;;10.43;8.53;;;12.60;99.90;;;;;;5029209;28;20228;-77
2024/03/20 06:42:21;;;;;;;8.37;6.67;;;12.70;99.90;;;;;;5013302;28;20263;-77
2024/03/20 06:44:48;;;;;;;8.60;6.50;;;12.80;99.90;;;;;;5016037;28;20189;-77
2024/03/20 06:47:14;;;;;;;10.38;7.65;;;12.90;99.90;;;;;;5029786;28;20661;-77
2024/03/20 06:49:40;;;;;;;8.25;7.32;;;12.90;99.90;;;;;;5054390;28;20174;-78
2024/03/20 06:52:06;;;;;;;9.00;7.23;;;13.00;99.90;;;;;;5045632;28;20185;-77
2024/03/20 06:54:32;;;;;;;10.10;7.97;;;13.10;99.90;;;;;;5043924;28;20201;-77
2024/03/20 06:57:03;;;;;;;9.57;8.13;;;13.20;99.90;;;;;;5023273;28;20691;-77
2024/03/20 06:59:30;;;;;;;7.57;6.67;;;13.30;99.90;;;;;;5056138;28;20181;-77
2024/03/20 07:01:57;;;;;;;10.18;7.50;;;13.30;99.90;;;;;;5017564;28;20653;-76
2024/03/20 07:04:24;;;;;;;9.43;6.97;;;13.40;99.90;;;;;;5045355;28;20324;-78
2024/03/20 07:06:51;;;;;;;8.63;7.00;;;13.50;99.90;;;;;;5038079;28;20734;-77
2024/03/20 07:09:17;;;;;;;7.67;6.37;;;13.60;99.90;;;;;;5005396;28;20592;-78
2024/03/20 07:11:43;;;;;;;9.60;6.70;;;13.70;99.90;;;;;;5040892;28;20587;-74
2024/03/20 07:14:08;;;;;;;10.90;7.93;;;13.90;99.90;;;;;;5026177;28;20584;-75
2024/03/20 07:16:34;;;;;;;9.70;8.70;;;14.00;99.90;;;;;;5042529;28;20576;-75
2024/03/20 07:19:00;;;;;;;9.23;8.33;;;14.10;99.90;;;;;;5042005;28;20715;-75
2024/03/20 07:21:27;;;;;;;12.33;8.60;;;14.10;99.90;;;;;;5023232;28;20539;-76
2024/03/20 07:23:52;;;;;;;11.23;7.43;;;14.20;99.90;;;;;;5039973;28;20584;-75
2024/03/20 07:26:19;;;;;;;7.17;6.17;;;14.20;99.90;;;;;;5023334;28;20655;-76
2024/03/20 07:28:45;;;;;;;13.63;6.97;;;14.30;99.90;;;;;;5041053;28;20243;-76
2024/03/20 07:31:11;;;;;;;9.40;8.10;;;14.40;99.90;;;;;;5007223;28;20607;-76
2024/03/20 07:33:36;;;;;;;8.67;6.73;;;14.50;99.90;;;;;;5021295;28;20580;-75
2024/03/20 07:36:03;;;;;;;10.73;7.33;;;14.70;99.90;;;;;;5006608;28;20224;-76
2024/03/20 07:38:28;;;;;;;9.10;7.40;;;14.90;99.90;;;;;;5039278;28;20274;-75
2024/03/20 07:40:55;;;;;;;10.07;7.67;;;15.30;99.90;;;;;;5041069;28;20869;-76
2024/03/20 07:43:21;;;;;;;9.30;7.87;;;15.60;99.90;;;;;;5041083;28;20200;-75
2024/03/20 07:45:47;;;;;;;8.40;7.30;;;15.80;99.90;;;;;;5042562;28;20627;-75
2024/03/20 07:48:15;;;;;;;12.90;8.30;;;16.10;99.90;;;;;;5006111;28;20714;-76
2024/03/20 07:50:41;;;;;;;8.57;7.40;;;16.30;99.90;;;;;;5039217;28;20584;-75
2024/03/20 07:53:07;;;;;;;8.33;6.60;;;16.40;99.90;;;;;;5022230;28;20596;-75
2024/03/20 07:55:33;;;;;;;7.83;7.00;;;16.70;99.90;;;;;;5019391;28;20184;-75
2024/03/20 07:57:59;;;;;;;9.63;7.30;;;17.00;99.90;;;;;;5021167;28;20252;-76
2024/03/20 08:00:31;;;;;;;12.40;8.07;;;17.30;99.90;;;;;;5024125;28;20185;-76
2024/03/20 08:03:00;;;;;;;6.13;5.30;;;17.70;99.90;;;;;;5040344;28;20588;-76
2024/03/20 08:05:26;;;;;;;8.40;6.50;;;18.20;99.90;;;;;;5023042;28;21200;-77
2024/03/20 08:07:53;;;;;;;6.47;5.37;;;18.50;99.90;;;;;;5024848;28;20683;-75
2024/03/20 08:10:19;;;;;;;10.07;6.97;;;18.90;99.90;;;;;;5007245;28;20588;-76
2024/03/20 08:12:45;;;;;;;8.30;6.87;;;19.10;99.90;;;;;;5028996;28;20602;-76
2024/03/20 08:15:11;;;;;;;7.33;5.33;;;19.30;99.90;;;;;;5055506;28;20695;-75
2024/03/20 08:17:39;;;;;;;8.03;5.83;;;19.50;99.90;;;;;;5043913;28;20603;-77
2024/03/20 08:20:12;;;;;;;9.70;6.03;;;19.60;99.90;;;;;;5024952;28;20181;-77
2024/03/20 08:22:39;;;;;;;6.77;5.10;;;19.80;99.90;;;;;;5026327;28;20671;-77
2024/03/20 08:25:05;;;;;;;6.80;5.93;;;20.00;99.90;;;;;;5031739;28;20954;-76
2024/03/20 08:27:31;;;;;;;6.83;5.20;;;20.20;99.90;;;;;;5030791;28;20746;-76
2024/03/20 08:29:58;;;;;;;5.73;5.10;;;20.30;99.90;;;;;;5028242;28;20616;-76
2024/03/20 08:32:24;;;;;;;7.60;5.10;;;20.50;99.90;;;;;;5006024;28;20239;-75
2024/03/20 08:34:51;;;;;;;5.40;4.90;;;20.70;99.90;;;;;;5027694;28;20583;-76
2024/03/20 08:37:17;;;;;;;6.67;5.17;;;20.90;99.90;;;;;;5027612;28;20636;-76
2024/03/20 08:39:43;;;;;;;5.93;5.00;;;21.30;99.90;;;;;;5027141;28;20595;-75
2024/03/20 08:42:08;;;;;;;7.20;5.33;;;21.70;99.90;;;;;;5005435;28;20180;-75
2024/03/20 08:44:34;;;;;;;8.40;5.00;;;22.10;99.90;;;;;;5023006;28;20219;-75
2024/03/20 08:47:00;;;;;;;7.60;4.03;;;22.50;99.90;;;;;;5040675;28;20233;-76
2024/03/20 08:49:27;;;;;;;5.30;4.13;;;22.80;99.90;;;;;;5022494;28;20180;-76
2024/03/20 08:51:53;;;;;;;7.70;5.27;;;22.90;99.90;;;;;;5038857;28;20730;-76
2024/03/20 08:54:20;;;;;;;7.23;5.30;;;22.90;99.90;;;;;;5019269;28;20949;-77
2024/03/20 08:56:47;;;;;;;6.53;4.30;;;22.70;99.90;;;;;;5021391;28;21217;-76
2024/03/20 08:59:12;;;;;;;6.33;4.43;;;22.60;99.90;;;;;;5020632;28;21390;-76
2024/03/20 09:01:38;;;;;;;5.90;4.77;;;22.50;99.90;;;;;;5040059;28;20590;-76
2024/03/20 09:04:04;;;;;;;8.00;4.27;;;22.40;99.90;;;;;;5040335;28;20538;-77
2024/03/20 09:06:29;;;;;;;6.87;5.00;;;22.50;99.90;;;;;;5021779;28;20737;-77
2024/03/20 09:08:55;;;;;;;6.93;4.83;;;22.90;99.90;;;;;;5039017;28;20224;-77
2024/03/20 09:11:21;;;;;;;5.43;4.87;;;23.30;99.90;;;;;;5024204;28;20208;-76
2024/03/20 09:13:47;;;;;;;5.97;4.37;;;23.50;99.90;;;;;;5022272;28;20180;-76
2024/03/20 09:16:13;;;;;;;4.93;4.43;;;23.80;99.90;;;;;;5041868;28;20196;-76
2024/03/20 09:18:38;;;;;;;5.10;3.63;;;24.30;99.90;;;;;;5013450;28;21196;-76
2024/03/20 09:21:04;;;;;;;6.17;4.07;;;24.70;99.90;;;;;;5019241;28;20213;-75
2024/03/20 09:23:31;;;;;;;4.80;4.27;;;25.10;99.90;;;;;;5022926;28;20182;-77
2024/03/20 09:25:57;;;;;;;7.07;4.70;;;25.60;99.90;;;;;;5021024;28;20207;-80
2024/03/20 09:28:23;;;;;;;5.23;3.77;;;26.00;99.90;;;;;;5005339;28;20618;-79
2024/03/20 09:30:49;;;;;;;5.80;2.90;;;26.30;99.90;;;;;;5019427;28;20578;-79
2024/03/20 09:33:15;;;;;;;5.00;2.97;;;26.80;99.90;;;;;;5038348;28;20661;-79
2024/03/20 09:35:40;;;;;;;5.70;2.90;;;27.30;99.90;;;;;;5009121;28;20310;-79
2024/03/20 09:38:06;;;;;;;4.17;2.90;;;27.90;99.90;;;;;;5006867;28;20200;-78
2024/03/20 09:40:32;;;;;;;4.57;2.97;;;28.40;99.90;;;;;;5042435;28;20190;-78
2024/03/20 09:42:58;;;;;;;5.03;2.80;;;29.00;99.90;;;;;;5041658;28;20296;-79
2024/03/20 09:45:24;;;;;;;3.90;2.90;;;29.10;99.90;;;;;;5026136;28;20711;-79
2024/03/20 09:47:51;;;;;;;5.27;2.53;;;29.30;99.00;;;;;;5023737;28;20601;-79
2024/03/20 09:50:18;;;;;;;5.00;2.80;;;29.60;97.30;;;;;;5041048;28;20178;-79
2024/03/20 09:52:45;;;;;;;4.00;2.07;;;29.70;96.40;;;;;;5025465;28;20584;-79
2024/03/20 09:55:14;;;;;;;5.23;2.27;;;29.70;94.90;;;;;;5021876;28;20588;-79
2024/03/20 09:57:43;;;;;;;3.73;2.07;;;29.40;92.60;;;;;;5025078;28;20623;-79
2024/03/20 10:00:14;;;;;;;6.50;2.70;;;29.20;91.50;;;;;;5025538;28;20598;-78
2024/03/20 10:02:43;;;;;;;6.27;2.90;;;29.00;91.00;;;;;;5023863;28;20989;-79
2024/03/20 10:05:12;;;;;;;5.90;2.77;;;28.90;90.30;;;;;;5003744;28;20686;-78
2024/03/20 10:07:40;;;;;;;4.07;2.50;;;28.70;90.40;;;;;;5023771;28;20674;-77
2024/03/20 10:10:08;;;;;;;3.80;2.43;;;28.80;90.50;;;;;;5023399;28;20597;-78
2024/03/20 10:12:35;;;;;;;4.67;2.17;;;29.00;90.50;;;;;;5042853;28;20792;-78
2024/03/20 10:15:10;;;;;;;3.10;2.10;;;29.10;90.10;;;;;;5027029;28;20611;-78
2024/03/20 10:17:37;;;;;;;4.90;2.60;;;29.30;88.80;;;;;;5041657;28;20626;-80
2024/03/20 10:20:20;;;;;;;4.03;2.07;;;29.50;87.80;;;;;;5024469;28;20725;-80
2024/03/20 10:22:47;;;;;;;4.73;2.13;;;29.70;86.70;;;;;;5041603;28;20674;-79
2024/03/20 10:25:16;;;;;;;4.73;2.50;;;30.00;87.20;;;;;;5007034;28;20627;-79
2024/03/20 10:27:44;;;;;;;4.40;2.50;;;30.20;86.40;;;;;;5010969;28;20627;-79
2024/03/20 10:30:19;;;;;;;6.47;2.90;;;30.40;85.40;;;;;;5042682;28;20965;-80
2024/03/20 10:32:52;;;;;;;4.40;3.10;;;30.70;80.90;;;;;;5041350;28;20579;-79
2024/03/20 10:35:20;;;;;;;4.07;1.97;;;30.70;80.40;;;;;;5025423;28;20588;-79
2024/03/20 10:37:47;;;;;;;3.50;2.60;;;30.80;80.00;;;;;;5025373;28;20618;-79
2024/03/20 10:40:19;;;;;;;3.87;2.20;;;30.90;79.60;;;;;;5023563;28;21143;-79
2024/03/20 10:42:49;;;;;;;3.73;2.10;;;30.90;78.70;;;;;;5039664;28;20584;-80
2024/03/20 10:45:16;;;;;;;3.40;1.83;;;30.90;78.20;;;;;;5039035;28;20587;-78
2024/03/20 10:47:44;;;;;;;6.03;1.90;;;30.90;77.50;;;;;;5020533;28;21229;-79
2024/03/20 10:50:15;;;;;;;3.80;2.20;;;31.00;76.80;;;;;;5006470;28;20577;-80
2024/03/20 10:52:46;;;;;;;2.63;1.70;;;31.00;74.60;;;;;;5039662;28;20979;-80
2024/03/20 10:55:17;;;;;;;2.77;1.40;;;30.80;72.80;;;;;;4989610;28;20585;-79
2024/03/20 10:57:46;;;;;;;4.13;1.93;;;30.60;71.50;;;;;;5040143;28;20613;-80
2024/03/20 11:00:20;;;;;;;3.77;1.90;;;30.50;71.30;;;;;;5041964;28;21151;-80
2024/03/20 11:02:47;;;;;;;3.80;1.87;;;30.30;71.20;;;;;;5039426;28;20600;-80
2024/03/20 11:05:39;;;;;;;2.47;1.57;;;30.30;71.90;;;;;;5037118;28;20649;-80
2024/03/20 11:08:07;;;;;;;4.37;2.13;;;30.30;69.40;;;;;;5013915;28;20644;-78
2024/03/20 11:10:34;;;;;;;5.40;3.40;;;30.10;69.30;;;;;;5039221;28;20586;-78
2024/03/20 11:13:00;;;;;;;3.77;2.30;;;29.50;67.20;;;;;;5022728;28;20625;-79
2024/03/20 11:15:31;;;;;;;5.10;2.17;;;29.10;67.60;;;;;;5039696;28;20572;-79
2024/03/20 11:18:01;;;;;;;4.80;2.10;;;28.90;67.80;;;;;;5022947;28;20631;-79
2024/03/20 11:20:32;;;;;;;3.63;2.20;;;28.80;69.00;;;;;;5020593;28;21160;-79
2024/03/20 11:22:59;;;;;;;3.40;1.93;;;28.60;66.70;;;;;;5021569;28;20583;-78
2024/03/20 11:25:25;;;;;;;4.73;2.40;;;28.30;66.40;;;;;;5021955;28;20934;-79
2024/03/20 11:27:52;;;;;;;3.03;2.00;;;28.10;66.80;;;;;;5023652;28;20633;-79
2024/03/20 11:30:18;;;;;;;4.10;1.83;;;28.00;66.90;;;;;;5037043;28;20173;-80
2024/03/20 11:32:44;;;;;;;3.90;1.63;;;27.90;67.90;;;;;;5021059;28;20599;-80
2024/03/20 11:35:13;;;;;;;3.30;1.43;;;28.00;68.70;;;;;;5004465;28;20517;-80
2024/03/20 11:37:40;;;;;;;2.40;1.17;;;27.90;67.00;;;;;;5012440;28;20669;-80
2024/03/20 11:40:09;;;;;;;10.10;2.53;;;27.90;67.60;;;;;;5037004;28;20638;-79
2024/03/20 11:42:35;;;;;;;4.63;1.70;;;28.00;68.10;;;;;;5023162;28;20608;-80
2024/03/20 11:45:01;;;;;;;8.50;1.60;;;28.10;68.30;;;;;;5020968;28;21522;-81
2024/03/20 11:47:27;;;;;;;2.77;1.73;;;28.30;68.40;;;;;;5040060;28;20678;-81
2024/03/20 11:49:56;;;;;;;3.97;2.03;;;28.40;68.30;;;;;;5005305;28;20964;-80
2024/03/20 11:52:23;;;;;;;5.30;1.83;;;28.50;66.70;;;;;;5022398;28;20620;-80
2024/03/20 11:54:50;;;;;;;3.17;1.50;;;28.60;67.20;;;;;;5022315;28;20580;-80
2024/03/20 11:57:17;;;;;;;2.37;1.10;;;28.70;66.80;;;;;;5039989;28;20620;-79
2024/03/20 11:59:46;;;;;;;5.27;1.30;;;28.50;65.60;;;;;;5040124;28;20591;-76
2024/03/20 12:02:14;;;;;;;2.13;1.17;;;28.40;62.50;;;;;;5041677;28;20923;-76
2024/03/20 12:04:42;;;;;;;2.93;1.20;;;28.20;64.00;;;;;;5023170;28;20599;-76
2024/03/20 12:07:26;;;;;;;3.67;1.40;;;28.20;64.50;;;;;;5039987;28;20644;-76
2024/03/20 12:09:52;;;;;;;4.70;1.00;;;28.10;63.40;;;;;;5019950;28;21034;-75
2024/03/20 12:12:24;;;;;;;3.00;0.80;;;28.10;64.30;;;;;;5005396;28;20669;-75
2024/03/20 12:14:50;;;;;;;2.00;0.80;;;28.10;63.40;;;;;;5019789;28;20589;-76
2024/03/20 12:17:17;;;;;;;2.77;1.00;;;28.20;63.60;;;;;;5004957;28;20668;-75
2024/03/20 12:19:43;;;;;;;2.10;0.70;;;28.20;63.50;;;;;;5021707;28;20952;-76
2024/03/20 12:22:13;;;;;;;2.97;0.90;;;28.20;62.50;;;;;;5021320;28;20591;-76
2024/03/20 12:24:40;;;;;;;1.97;0.80;;;28.10;60.90;;;;;;5020924;28;20590;-76
2024/03/20 12:27:11;;;;;;;2.53;0.90;;;27.90;60.30;;;;;;5005382;28;20646;-75
2024/03/20 12:29:37;;;;;;;2.17;0.80;;;27.60;59.50;;;;;;5040359;28;20625;-76
2024/03/20 12:32:03;;;;;;;1.73;0.87;;;27.30;58.90;;;;;;5038954;28;20582;-77
2024/03/20 12:34:29;;;;;;;2.00;0.80;;;27.10;59.20;;;;;;5038614;28;20728;-77
2024/03/20 12:36:55;;;;;;;4.17;1.13;;;26.90;59.40;;;;;;5042357;28;20653;-75
2024/03/20 12:39:20;;;;;;;3.40;1.10;;;26.80;59.70;;;;;;5023609;28;20636;-75
2024/03/20 12:41:47;;;;;;;1.90;0.97;;;26.70;59.90;;;;;;5022120;28;20249;-75
2024/03/20 12:44:14;;;;;;;2.40;0.93;;;26.60;60.40;;;;;;5038013;28;20201;-78